Time;durP1;ratioP1;P1;durP2;ratioP2;P2;SDS_P1;SDS_P2;PMS_P1;PMS_P2;Temp;Humidity;BMP_temperature;BMP_pressure;BME280_temperature;BME280_humidity;BME280_pressure;Samples;Min_cycle;Max_cycle;Signal;HPM_P1;HPM_P2
2023/12/06 00:01:47;;;;;;;1.83;1.70;;;;;;;2.41;92.06;99775.69;4996565;28;20045;-80
2023/12/06 00:04:14;;;;;;;2.47;1.55;;;;;;;2.44;92.06;99767.94;5010152;28;20050;-80
2023/12/06 00:06:41;;;;;;;2.60;1.40;;;;;;;2.50;91.94;99771.44;5003296;28;20057;-80
2023/12/06 00:09:08;;;;;;;2.20;1.60;;;;;;;2.49;91.90;99777.47;5002465;28;20053;-80
2023/12/06 00:11:38;;;;;;;2.33;1.80;;;;;;;2.50;91.76;99774.88;5011000;28;20050;-80
2023/12/06 00:14:05;;;;;;;2.00;1.75;;;;;;;2.49;91.66;99780.94;4996304;28;20164;-80
2023/12/06 00:16:32;;;;;;;3.20;1.98;;;;;;;2.48;91.92;99770.53;4993003;28;20046;-80
2023/12/06 00:18:59;;;;;;;2.38;1.60;;;;;;;2.48;91.64;99780.91;5015999;28;20042;-80
2023/12/06 00:21:26;;;;;;;1.73;1.50;;;;;;;2.47;91.73;99774.88;5013453;28;20046;-79
2023/12/06 00:23:53;;;;;;;2.72;1.90;;;;;;;2.49;91.73;99773.16;4994735;28;20132;-80
2023/12/06 00:26:21;;;;;;;2.60;1.70;;;;;;;2.51;91.68;99778.34;5026823;28;20183;-80
2023/12/06 00:28:49;;;;;;;1.88;1.40;;;;;;;2.48;91.57;99786.09;4998627;28;20045;-80
2023/12/06 00:31:16;;;;;;;2.35;1.80;;;;;;;2.52;91.73;99777.47;5012282;28;20069;-80
2023/12/06 00:33:43;;;;;;;2.85;1.80;;;;;;;2.51;91.74;99780.94;5002700;28;20045;-80
2023/12/06 00:36:10;;;;;;;1.60;1.50;;;;;;;2.48;91.87;99775.72;5000183;28;20084;-80
2023/12/06 00:38:38;;;;;;;2.53;1.85;;;;;;;2.48;91.88;99780.91;5009634;28;20073;-80
2023/12/06 00:41:05;;;;;;;1.88;1.48;;;;;;;2.44;92.02;99780.88;5003891;28;20054;-80
2023/12/06 00:43:32;;;;;;;2.03;1.52;;;;;;;2.48;91.91;99786.09;5014407;28;20077;-81
2023/12/06 00:46:02;;;;;;;2.92;1.90;;;;;;;2.52;91.87;99782.66;5027196;28;20046;-80
2023/12/06 00:48:29;;;;;;;2.90;1.85;;;;;;;2.50;91.89;99786.97;5010457;28;20057;-81
2023/12/06 00:50:56;;;;;;;2.15;1.60;;;;;;;2.51;91.88;99786.13;5006195;28;20084;-81
2023/12/06 00:53:23;;;;;;;2.90;1.58;;;;;;;2.51;91.68;99786.13;5008407;28;20057;-81
2023/12/06 00:55:50;;;;;;;2.97;1.77;;;;;;;2.54;91.58;99797.38;5008869;28;20056;-80
2023/12/06 00:58:17;;;;;;;1.88;1.40;;;;;;;2.55;91.61;99799.09;5018512;28;20052;-81
2023/12/06 01:00:44;;;;;;;1.73;1.27;;;;;;;2.54;91.37;99807.72;5001959;28;20072;-81
2023/12/06 01:03:12;;;;;;;1.52;1.42;;;;;;;2.55;91.46;99799.09;5012632;28;20053;-81
2023/12/06 01:05:39;;;;;;;2.08;1.75;;;;;;;2.56;91.42;99805.16;5012004;28;20046;-81
2023/12/06 01:08:05;;;;;;;3.85;1.90;;;;;;;2.56;91.68;99799.97;5014927;28;20103;-81
2023/12/06 01:10:34;;;;;;;2.47;1.65;;;;;;;2.56;91.89;99803.44;5014150;28;20052;-80
2023/12/06 01:13:01;;;;;;;1.95;1.40;;;;;;;2.57;91.85;99802.56;5011040;28;20125;-80
2023/12/06 01:15:28;;;;;;;1.75;1.52;;;;;;;2.55;91.77;99808.59;5014023;28;20084;-80
2023/12/06 01:17:54;;;;;;;1.67;1.40;;;;;;;2.55;91.98;99813.75;5008956;28;20073;-81
2023/12/06 01:20:22;;;;;;;2.55;1.50;;;;;;;2.50;92.19;99808.56;5022251;28;20069;-80
2023/12/06 01:22:50;;;;;;;2.80;1.73;;;;;;;2.57;92.15;99817.25;4997007;28;20045;-81
2023/12/06 01:25:17;;;;;;;2.55;1.60;;;;;;;2.54;92.51;99818.09;5012919;28;20049;-81
2023/12/06 01:27:44;;;;;;;2.92;1.73;;;;;;;2.53;92.72;99821.53;5014928;28;20109;-81
2023/12/06 01:30:12;;;;;;;1.70;1.60;;;;;;;2.55;92.26;99822.44;5017234;28;20049;-80
2023/12/06 01:32:40;;;;;;;2.42;1.60;;;;;;;2.54;92.67;99828.44;5037310;28;20485;-81
2023/12/06 01:35:08;;;;;;;1.75;1.33;;;;;;;2.54;92.74;99827.59;5011501;28;20087;-81
2023/12/06 01:37:35;;;;;;;2.33;1.50;;;;;;;2.54;92.82;99827.59;5019596;28;20052;-80
2023/12/06 01:40:04;;;;;;;2.00;1.55;;;;;;;2.54;92.76;99832.78;5008945;28;20053;-80
2023/12/06 01:42:31;;;;;;;2.80;1.55;;;;;;;2.55;93.02;99834.50;5017796;28;20045;-81
2023/12/06 01:44:58;;;;;;;2.30;1.27;;;;;;;2.55;93.10;99834.50;5014498;28;20051;-81
2023/12/06 01:47:26;;;;;;;2.38;1.20;;;;;;;2.58;92.87;99839.72;5013939;28;20077;-80
2023/12/06 01:49:54;;;;;;;1.83;1.40;;;;;;;2.59;93.18;99841.44;5008404;28;20561;-80
2023/12/06 01:52:21;;;;;;;2.05;1.45;;;;;;;2.58;92.98;99856.13;5010516;28;20128;-81
2023/12/06 01:54:48;;;;;;;2.53;1.70;;;;;;;2.60;93.04;99853.53;5001071;28;20041;-80
2023/12/06 01:57:16;;;;;;;3.38;1.40;;;;;;;2.60;93.29;99845.78;5020449;28;20485;-80
2023/12/06 01:59:43;;;;;;;3.40;1.73;;;;;;;2.62;93.26;99851.81;5018795;28;20053;-81
2023/12/06 02:02:11;;;;;;;1.60;1.30;;;;;;;2.62;92.97;99851.81;5005127;28;20049;-78
2023/12/06 02:04:38;;;;;;;4.03;1.77;;;;;;;2.61;93.14;99852.69;5005709;28;20056;-80
2023/12/06 02:07:05;;;;;;;1.75;1.50;;;;;;;2.60;93.14;99844.03;5005483;28;21270;-81
2023/12/06 02:09:32;;;;;;;3.33;1.75;;;;;;;2.61;93.04;99844.91;5009083;28;20037;-80
2023/12/06 02:11:59;;;;;;;2.88;1.50;;;;;;;2.63;93.14;99855.28;4996891;28;20037;-81
2023/12/06 02:14:26;;;;;;;2.47;1.73;;;;;;;2.64;93.07;99855.31;5015084;28;20049;-81
2023/12/06 02:16:53;;;;;;;3.15;1.90;;;;;;;2.64;93.39;99857.91;5003072;28;20053;-80
2023/12/06 02:19:25;;;;;;;2.63;1.85;;;;;;;2.64;93.32;99857.03;5008965;28;20049;-81
2023/12/06 02:21:52;;;;;;;3.50;2.10;;;;;;;2.64;93.44;99855.31;5015075;28;20045;-81
2023/12/06 02:24:19;;;;;;;3.15;1.95;;;;;;;2.62;93.40;99851.81;5010722;28;20049;-81
2023/12/06 02:26:46;;;;;;;3.13;1.90;;;;;;;2.63;93.50;99858.75;4993608;28;20056;-81
2023/12/06 02:29:12;;;;;;;2.72;1.60;;;;;;;2.63;93.61;99857.88;5004995;28;20053;-81
2023/12/06 02:31:39;;;;;;;2.20;1.75;;;;;;;2.61;93.53;99860.47;5009039;28;20049;-80
2023/12/06 02:34:10;;;;;;;2.67;1.52;;;;;;;2.63;93.75;99863.91;5009695;28;20053;-81
2023/12/06 02:36:38;;;;;;;2.38;1.60;;;;;;;2.63;93.47;99860.47;4998257;28;20066;-80
2023/12/06 02:39:05;;;;;;;2.13;1.48;;;;;;;2.64;93.81;99857.91;5010759;28;21659;-80
2023/12/06 02:41:33;;;;;;;2.25;1.67;;;;;;;2.63;93.40;99858.75;5014570;28;20041;-81
2023/12/06 02:44:00;;;;;;;2.42;1.85;;;;;;;2.64;93.69;99857.91;5002906;28;20047;-81
2023/12/06 02:46:27;;;;;;;2.08;1.33;;;;;;;2.64;93.65;99854.44;5006819;28;20568;-81
2023/12/06 02:48:56;;;;;;;2.38;1.38;;;;;;;2.66;93.71;99857.91;5000374;28;20049;-81
2023/12/06 02:51:23;;;;;;;2.22;1.70;;;;;;;2.66;93.83;99863.09;5007712;28;20072;-81
2023/12/06 02:53:51;;;;;;;1.98;1.50;;;;;;;2.70;93.79;99865.72;5000008;28;20049;-80
2023/12/06 02:56:18;;;;;;;2.28;1.60;;;;;;;2.66;93.68;99874.31;4998732;28;20046;-80
2023/12/06 02:58:45;;;;;;;2.95;1.58;;;;;;;2.66;93.86;99878.63;5014765;28;20075;-81
2023/12/06 03:01:11;;;;;;;3.47;1.85;;;;;;;2.67;93.89;99867.41;5001608;28;20049;-81
2023/12/06 03:03:38;;;;;;;2.47;1.60;;;;;;;2.65;93.93;99874.28;5017827;28;20114;-80
2023/12/06 03:06:06;;;;;;;2.20;1.58;;;;;;;2.65;94.20;99875.19;5022753;28;20057;-80
2023/12/06 03:08:32;;;;;;;2.10;1.30;;;;;;;2.66;93.95;99863.94;4996375;28;20046;-80
2023/12/06 03:10:59;;;;;;;1.88;1.50;;;;;;;2.64;94.05;99870.84;5011316;28;20043;-80
2023/12/06 03:13:26;;;;;;;1.88;1.60;;;;;;;2.65;94.18;99861.34;5019273;28;20046;-79
2023/12/06 03:15:52;;;;;;;2.90;1.77;;;;;;;2.66;94.29;99866.53;4998009;28;20037;-81
2023/12/06 03:18:19;;;;;;;3.13;1.38;;;;;;;2.67;94.29;99864.84;5002867;28;20046;-81
2023/12/06 03:20:46;;;;;;;2.60;1.38;;;;;;;2.66;94.27;99863.09;4976050;28;20074;-78
2023/12/06 03:23:13;;;;;;;2.30;1.42;;;;;;;2.65;94.17;99871.72;4996547;28;20481;-81
2023/12/06 03:25:40;;;;;;;1.55;1.30;;;;;;;2.65;94.05;99872.59;5004362;28;20046;-80
2023/12/06 03:28:07;;;;;;;2.00;1.45;;;;;;;2.66;94.17;99863.94;4997870;28;20061;-81
2023/12/06 03:30:34;;;;;;;3.55;1.65;;;;;;;2.66;94.03;99861.34;4999088;28;20049;-81
2023/12/06 03:33:03;;;;;;;2.63;2.20;;;;;;;2.69;94.04;99860.50;4993521;28;20050;-81
2023/12/06 03:35:30;;;;;;;2.40;1.70;;;;;;;2.70;94.23;99862.25;5009999;28;20054;-81
2023/12/06 03:37:57;;;;;;;2.75;1.77;;;;;;;2.69;94.18;99861.38;5002007;28;20050;-81
2023/12/06 03:40:23;;;;;;;2.03;1.40;;;;;;;2.71;94.30;99862.28;4998311;28;20060;-81
2023/12/06 03:42:51;;;;;;;2.53;1.40;;;;;;;2.71;94.12;99867.44;5012360;28;20045;-81
2023/12/06 03:45:17;;;;;;;2.80;1.67;;;;;;;2.73;93.96;99864.88;5001374;28;20053;-81
2023/12/06 03:47:45;;;;;;;3.25;1.67;;;;;;;2.69;94.20;99863.97;5007277;28;20101;-81
2023/12/06 03:50:12;;;;;;;2.65;1.73;;;;;;;2.73;94.26;99864.88;5006636;28;20061;-80
2023/12/06 03:52:42;;;;;;;2.92;1.80;;;;;;;2.71;94.48;99871.75;5004824;28;20117;-79
2023/12/06 03:55:11;;;;;;;2.10;1.60;;;;;;;2.71;94.54;99867.44;5003342;28;20049;-80
2023/12/06 03:57:38;;;;;;;2.80;1.90;;;;;;;2.70;94.45;99865.72;5011830;28;20292;-80
2023/12/06 04:00:07;;;;;;;3.90;1.98;;;;;;;2.69;94.37;99863.09;4990917;28;20150;-81
2023/12/06 04:02:34;;;;;;;1.75;1.42;;;;;;;2.67;94.46;99864.84;5003025;28;20050;-81
2023/12/06 04:05:02;;;;;;;3.00;1.67;;;;;;;2.67;94.42;99859.66;5012153;28;20103;-80
2023/12/06 04:07:29;;;;;;;2.28;1.42;;;;;;;2.69;94.45;99857.94;5019056;28;20136;-81
2023/12/06 04:09:55;;;;;;;2.58;1.45;;;;;;;2.70;94.47;99859.66;4999233;28;20042;-81
2023/12/06 04:12:23;;;;;;;2.58;1.70;;;;;;;2.72;94.48;99869.19;5008737;28;20041;-80
2023/12/06 04:14:50;;;;;;;1.80;1.33;;;;;;;2.70;94.55;99865.72;5014740;28;20037;-81
2023/12/06 04:17:17;;;;;;;3.03;1.90;;;;;;;2.71;94.54;99864.88;5015740;28;20064;-81
2023/12/06 04:19:44;;;;;;;2.85;1.63;;;;;;;2.70;94.46;99868.31;5002886;28;20066;-80
2023/12/06 04:22:11;;;;;;;3.00;1.40;;;;;;;2.70;94.61;99870.03;4995481;28;20528;-81
2023/12/06 04:24:38;;;;;;;4.18;1.63;;;;;;;2.70;94.36;99873.47;5019113;28;20124;-81
2023/12/06 04:27:05;;;;;;;2.97;1.73;;;;;;;2.70;94.50;99870.88;5006927;28;20041;-80
2023/12/06 04:29:32;;;;;;;2.95;1.83;;;;;;;2.71;94.48;99877.81;5014873;28;20063;-80
2023/12/06 04:31:58;;;;;;;1.65;1.40;;;;;;;2.71;94.38;99876.94;5000097;28;20041;-81
2023/12/06 04:34:25;;;;;;;1.45;1.25;;;;;;;2.73;94.49;99888.19;5011004;28;20603;-80
2023/12/06 04:36:54;;;;;;;4.35;1.63;;;;;;;2.74;94.13;99882.16;4998534;28;20042;-81
2023/12/06 04:39:21;;;;;;;3.17;1.70;;;;;;;2.71;94.12;99882.13;5023556;28;20056;-80
2023/12/06 04:41:48;;;;;;;2.28;1.70;;;;;;;2.70;94.22;99886.44;5021558;28;20041;-80
2023/12/06 04:44:15;;;;;;;2.35;1.50;;;;;;;2.68;94.00;99887.28;5034952;28;20041;-81
2023/12/06 04:46:44;;;;;;;2.47;1.50;;;;;;;2.70;93.74;99893.34;5022901;28;20048;-81
2023/12/06 04:49:11;;;;;;;3.35;1.48;;;;;;;2.67;93.85;99894.19;5012263;28;20128;-78
2023/12/06 04:51:38;;;;;;;2.47;1.63;;;;;;;2.64;93.69;99891.56;5035318;28;20046;-81
2023/12/06 04:54:05;;;;;;;2.20;1.45;;;;;;;2.66;93.39;99892.44;5012998;28;20286;-81
2023/12/06 04:56:32;;;;;;;3.05;1.65;;;;;;;2.71;92.98;99906.31;5017582;28;20416;-80
2023/12/06 04:58:59;;;;;;;2.90;1.50;;;;;;;2.71;92.92;99903.72;4998103;28;20060;-81
2023/12/06 05:01:26;;;;;;;3.38;1.63;;;;;;;2.83;92.85;99913.31;5004419;28;20049;-81
2023/12/06 05:03:53;;;;;;;2.28;1.63;;;;;;;2.94;92.29;99921.16;5005886;28;20045;-80
2023/12/06 05:06:20;;;;;;;3.08;2.05;;;;;;;2.96;92.14;99914.28;4988002;28;20057;-80
2023/12/06 05:08:47;;;;;;;3.33;1.80;;;;;;;3.10;91.70;99916.97;5013688;28;20127;-80
2023/12/06 05:11:14;;;;;;;2.42;1.52;;;;;;;3.13;90.92;99920.47;5001986;28;20045;-80
2023/12/06 05:13:41;;;;;;;2.60;1.80;;;;;;;3.17;90.75;99923.06;5028919;28;20092;-81
2023/12/06 05:16:08;;;;;;;3.75;2.08;;;;;;;3.24;90.05;99924.84;5011050;28;20048;-80
2023/12/06 05:18:35;;;;;;;3.55;2.55;;;;;;;3.36;88.55;99924.06;5022924;28;20111;-81
2023/12/06 05:21:02;;;;;;;2.95;2.15;;;;;;;3.37;87.77;99924.06;5008615;28;20052;-81
2023/12/06 05:23:29;;;;;;;2.97;1.90;;;;;;;3.47;86.97;99925.84;5002840;28;20045;-80
2023/12/06 05:25:56;;;;;;;2.70;1.88;;;;;;;3.52;85.99;99918.09;5012589;28;20087;-79
2023/12/06 05:28:23;;;;;;;3.75;1.98;;;;;;;3.52;85.83;99922.41;5012947;28;20092;-80
2023/12/06 05:30:50;;;;;;;3.50;2.15;;;;;;;3.58;84.51;99930.25;5013018;28;20506;-81
2023/12/06 05:33:17;;;;;;;3.47;2.28;;;;;;;3.45;85.42;99932.75;5013035;28;20053;-79
2023/12/06 05:35:46;;;;;;;4.10;2.08;;;;;;;3.47;85.18;99936.22;5016816;28;20056;-80
2023/12/06 05:38:13;;;;;;;3.45;2.15;;;;;;;3.50;85.08;99937.97;5015013;28;20141;-81
2023/12/06 05:40:40;;;;;;;4.60;2.10;;;;;;;3.56;84.05;99948.38;5022704;28;20045;-80
2023/12/06 05:43:08;;;;;;;4.32;2.30;;;;;;;3.53;84.01;99947.50;4992070;28;20063;-80
2023/12/06 05:45:36;;;;;;;3.42;2.05;;;;;;;3.57;83.10;99946.66;5008650;28;20052;-80
2023/12/06 05:48:04;;;;;;;5.55;2.70;;;;;;;3.58;82.85;99949.28;5023930;28;20045;-80
2023/12/06 05:50:31;;;;;;;4.10;2.05;;;;;;;3.61;82.14;99951.88;5015737;28;20050;-79
2023/12/06 05:52:58;;;;;;;4.80;2.17;;;;;;;3.55;82.99;99956.16;5000330;28;20460;-81
2023/12/06 05:55:25;;;;;;;4.63;2.15;;;;;;;3.55;82.32;99951.84;5007790;28;20053;-80
2023/12/06 05:57:53;;;;;;;5.15;2.78;;;;;;;3.50;82.37;99963.06;5017245;28;20080;-79
2023/12/06 06:00:20;;;;;;;4.45;2.53;;;;;;;3.54;81.77;99960.47;5012631;28;20132;-81
2023/12/06 06:02:47;;;;;;;4.97;2.33;;;;;;;3.49;82.13;99962.19;5000822;28;20066;-79
2023/12/06 06:05:14;;;;;;;4.15;2.45;;;;;;;3.50;81.48;99963.06;5007312;28;20072;-80
2023/12/06 06:07:41;;;;;;;3.35;1.95;;;;;;;3.46;81.63;99972.53;5022216;28;20046;-81
2023/12/06 06:10:08;;;;;;;3.95;2.63;;;;;;;3.44;82.11;99969.94;5008924;28;20041;-82
2023/12/06 06:12:35;;;;;;;3.88;2.42;;;;;;;3.39;81.95;99973.34;5000736;28;20042;-80
2023/12/06 06:15:03;;;;;;;4.93;2.75;;;;;;;3.38;82.14;99976.81;5000698;28;20049;-81
2023/12/06 06:17:30;;;;;;;3.95;2.42;;;;;;;3.33;82.39;99981.94;5010539;28;20085;-82
2023/12/06 06:19:57;;;;;;;2.50;1.88;;;;;;;3.35;81.55;99984.59;5008946;28;20073;-82
2023/12/06 06:22:23;;;;;;;3.97;2.60;;;;;;;3.30;81.80;99995.78;5017725;28;20116;-82
2023/12/06 06:24:50;;;;;;;4.30;2.50;;;;;;;3.29;81.31;99995.78;4997353;28;20057;-81
2023/12/06 06:27:17;;;;;;;4.32;2.60;;;;;;;3.23;81.12;100000.91;5016883;28;20132;-81
2023/12/06 06:29:44;;;;;;;4.50;2.80;;;;;;;3.19;81.38;100013.00;5001028;28;20052;-81
2023/12/06 06:32:11;;;;;;;4.22;2.80;;;;;;;3.17;81.54;100011.22;5007900;28;20069;-81
2023/12/06 06:34:38;;;;;;;5.07;3.00;;;;;;;3.15;81.29;100023.34;5024809;28;20045;-81
2023/12/06 06:37:08;;;;;;;6.65;3.05;;;;;;;3.09;81.83;100018.97;4997037;28;20085;-82
2023/12/06 06:39:36;;;;;;;5.82;2.92;;;;;;;3.07;81.66;100021.53;5020233;28;20081;-80
2023/12/06 06:42:06;;;;;;;5.22;3.05;;;;;;;3.05;81.61;100028.41;5009022;28;20083;-81
2023/12/06 06:44:33;;;;;;;7.45;3.28;;;;;;;3.02;81.78;100023.22;5016970;28;20046;-82
2023/12/06 06:47:00;;;;;;;6.38;3.25;;;;;;;3.01;81.98;100029.25;5009116;28;20052;-82
2023/12/06 06:49:27;;;;;;;5.28;2.88;;;;;;;2.99;82.22;100041.34;5005362;28;20041;-80
2023/12/06 06:51:55;;;;;;;5.25;2.83;;;;;;;3.02;81.75;100043.94;5006319;28;20049;-81
2023/12/06 06:54:22;;;;;;;5.50;3.13;;;;;;;2.99;81.63;100043.06;5002665;28;20152;-81
2023/12/06 06:56:48;;;;;;;4.13;2.85;;;;;;;2.94;81.86;100046.47;5014343;28;20059;-81
2023/12/06 06:59:15;;;;;;;3.40;2.42;;;;;;;2.94;81.27;100050.78;5002508;28;20380;-81
2023/12/06 07:01:42;;;;;;;4.22;2.58;;;;;;;2.94;80.65;100058.56;4997830;28;20105;-82
2023/12/06 07:04:10;;;;;;;5.75;2.95;;;;;;;2.88;80.81;100051.63;5011535;28;20055;-81
2023/12/06 07:06:37;;;;;;;2.92;2.17;;;;;;;2.82;80.62;100061.03;5002056;28;20048;-81
2023/12/06 07:09:04;;;;;;;5.70;3.13;;;;;;;2.83;80.27;100057.59;5004237;28;20050;-81
2023/12/06 07:11:33;;;;;;;3.92;2.25;;;;;;;2.84;79.07;100069.69;5021230;28;20050;-82
2023/12/06 07:14:00;;;;;;;5.05;3.25;;;;;;;2.78;80.55;100071.38;5022263;28;20046;-82
2023/12/06 07:16:28;;;;;;;4.35;2.90;;;;;;;2.72;80.26;100068.72;5012068;28;20094;-81
2023/12/06 07:18:55;;;;;;;3.80;2.53;;;;;;;2.75;79.52;100076.53;5025356;28;20045;-82
2023/12/06 07:21:22;;;;;;;4.05;2.45;;;;;;;2.78;78.87;100080.84;5031454;28;20121;-81
2023/12/06 07:23:49;;;;;;;3.95;2.70;;;;;;;2.73;79.66;100086.00;5020866;28;20051;-82
2023/12/06 07:26:19;;;;;;;3.65;2.17;;;;;;;2.74;79.54;100100.69;5010918;28;20596;-81
2023/12/06 07:28:46;;;;;;;3.88;2.58;;;;;;;2.74;78.52;100100.69;5012361;28;20065;-81
2023/12/06 07:31:13;;;;;;;4.68;2.78;;;;;;;2.73;78.76;100098.94;5021584;28;20068;-81
2023/12/06 07:33:40;;;;;;;5.40;2.90;;;;;;;2.70;79.14;100106.69;5008664;28;20101;-82
2023/12/06 07:36:10;;;;;;;6.65;2.95;;;;;;;2.68;79.07;100108.41;4999420;28;20050;-81
2023/12/06 07:38:37;;;;;;;4.63;1.98;;;;;;;2.73;78.29;100104.13;5006148;28;20151;-81
2023/12/06 07:41:04;;;;;;;3.78;2.08;;;;;;;2.73;78.57;100117.09;5009581;28;20104;-81
2023/12/06 07:43:33;;;;;;;5.20;2.33;;;;;;;2.75;78.41;100122.28;5022069;28;20053;-81
2023/12/06 07:46:00;;;;;;;3.33;1.98;;;;;;;2.71;78.73;100126.56;5007707;28;20109;-81
2023/12/06 07:48:27;;;;;;;3.42;2.25;;;;;;;2.70;78.86;100123.97;5011611;28;20045;-81
2023/12/06 07:50:54;;;;;;;3.65;2.50;;;;;;;2.72;78.87;100133.50;5007910;28;20050;-81
2023/12/06 07:53:21;;;;;;;3.72;2.05;;;;;;;2.72;78.57;100128.31;5026216;28;20152;-82
2023/12/06 07:55:48;;;;;;;3.50;2.22;;;;;;;2.76;78.41;100139.56;5000162;28;20072;-81
2023/12/06 07:58:17;;;;;;;4.55;2.20;;;;;;;2.76;78.38;100142.16;5013005;28;20141;-81
2023/12/06 08:00:44;;;;;;;3.53;1.88;;;;;;;2.73;78.47;100130.03;5016310;28;20048;-81
2023/12/06 08:03:11;;;;;;;3.58;2.17;;;;;;;2.72;78.48;100138.69;4998323;28;20075;-80
2023/12/06 08:05:38;;;;;;;4.18;2.53;;;;;;;2.84;77.47;100139.66;5014392;28;20149;-81
2023/12/06 08:08:05;;;;;;;5.20;2.20;;;;;;;2.81;78.51;100148.28;5001467;28;20075;-80
2023/12/06 08:10:33;;;;;;;13.05;5.47;;;;;;;2.83;77.45;100150.91;5007454;28;20061;-81
2023/12/06 08:13:01;;;;;;;5.75;2.50;;;;;;;2.84;78.18;100152.63;4990093;28;20114;-81
2023/12/06 08:15:28;;;;;;;4.97;2.88;;;;;;;2.85;77.13;100156.97;4988460;28;20056;-81
2023/12/06 08:17:56;;;;;;;4.40;2.45;;;;;;;2.86;77.70;100154.38;5003852;28;20113;-81
2023/12/06 08:20:23;;;;;;;6.40;2.63;;;;;;;2.87;77.17;100163.91;5017702;28;20059;-80
2023/12/06 08:22:50;;;;;;;4.82;2.70;;;;;;;2.86;77.51;100159.56;5013317;28;20077;-81
2023/12/06 08:25:18;;;;;;;5.15;2.70;;;;;;;2.91;77.34;100159.63;5009015;28;20046;-81
2023/12/06 08:27:45;;;;;;;6.22;3.28;;;;;;;2.89;77.50;100169.09;5024456;28;20121;-81
2023/12/06 08:30:13;;;;;;;7.82;3.67;;;;;;;2.94;77.30;100172.59;5008110;28;20049;-80
2023/12/06 08:32:40;;;;;;;6.55;3.88;;;;;;;2.91;77.87;100175.16;5013326;28;20072;-81
2023/12/06 08:35:08;;;;;;;10.65;5.00;;;;;;;2.93;77.55;100184.72;5003382;28;20122;-81
2023/12/06 08:37:35;;;;;;;7.43;4.55;;;;;;;2.94;78.81;100181.28;5009348;28;20133;-79
2023/12/06 08:40:03;;;;;;;4.35;2.70;;;;;;;2.92;77.85;100182.97;5015756;28;20046;-81
2023/12/06 08:42:30;;;;;;;4.82;2.42;;;;;;;2.94;76.95;100185.56;4992780;28;20045;-82
2023/12/06 08:44:56;;;;;;;5.07;2.92;;;;;;;2.99;78.17;100191.69;5014653;28;20808;-81
2023/12/06 08:47:23;;;;;;;3.90;2.72;;;;;;;3.01;78.28;100195.16;5014519;28;20055;-82
2023/12/06 08:49:52;;;;;;;5.82;3.05;;;;;;;3.04;76.78;100191.75;5011207;28;20041;-81
2023/12/06 08:52:19;;;;;;;5.30;3.00;;;;;;;3.08;76.61;100188.34;5020714;28;20053;-81
2023/12/06 08:54:46;;;;;;;6.63;3.25;;;;;;;3.06;76.53;100201.28;5008553;28;20138;-81
2023/12/06 08:57:13;;;;;;;4.03;2.55;;;;;;;3.08;76.87;100198.72;5012003;28;20049;-81
2023/12/06 08:59:41;;;;;;;6.05;2.90;;;;;;;3.07;76.29;100205.63;5021316;28;20068;-80
2023/12/06 09:02:07;;;;;;;4.57;2.67;;;;;;;3.15;75.14;100210.03;5013394;28;20046;-81
2023/12/06 09:04:34;;;;;;;6.55;2.60;;;;;;;3.16;75.51;100206.56;5003292;28;20046;-82
2023/12/06 09:07:01;;;;;;;5.22;3.00;;;;;;;3.16;76.38;100211.75;5011828;28;20118;-80
2023/12/06 09:09:28;;;;;;;4.72;2.60;;;;;;;3.13;76.05;100215.19;5015789;28;20069;-83
2023/12/06 09:11:55;;;;;;;5.15;3.00;;;;;;;3.13;76.33;100213.47;5017227;28;20045;-82
2023/12/06 09:14:21;;;;;;;4.07;2.50;;;;;;;3.15;76.36;100225.59;5017508;28;20049;-82
2023/12/06 09:16:48;;;;;;;4.72;2.65;;;;;;;3.18;76.35;100225.63;5028777;28;20048;-81
2023/12/06 09:19:16;;;;;;;6.00;3.35;;;;;;;3.19;77.00;100232.56;5024506;28;20045;-82
2023/12/06 09:21:45;;;;;;;6.15;3.00;;;;;;;3.22;76.40;100237.78;5024112;28;20063;-82
2023/12/06 09:24:13;;;;;;;6.30;2.75;;;;;;;3.22;75.64;100237.78;5028347;28;20050;-82
2023/12/06 09:26:41;;;;;;;5.93;2.88;;;;;;;3.29;74.89;100244.78;5008735;28;20041;-81
2023/12/06 09:29:08;;;;;;;6.20;3.63;;;;;;;3.30;75.47;100243.91;5013959;28;20041;-82
2023/12/06 09:31:36;;;;;;;4.60;2.80;;;;;;;3.30;74.57;100243.91;5010927;28;20061;-82
2023/12/06 09:34:04;;;;;;;3.70;2.35;;;;;;;3.33;75.31;100250.84;5007832;28;20045;-81
2023/12/06 09:36:31;;;;;;;5.40;3.10;;;;;;;3.35;75.36;100252.63;5031806;28;20060;-83
2023/12/06 09:39:00;;;;;;;6.10;3.00;;;;;;;3.36;75.98;100253.47;5007090;28;20053;-82
2023/12/06 09:41:32;;;;;;;5.85;3.33;;;;;;;3.40;75.78;100261.31;5011308;28;20042;-82
2023/12/06 09:44:00;;;;;;;6.43;2.80;;;;;;;3.45;75.04;100269.16;5019680;28;20037;-81
2023/12/06 09:46:27;;;;;;;6.55;3.40;;;;;;;3.44;75.52;100263.09;5013205;28;20076;-82
2023/12/06 09:48:54;;;;;;;3.75;2.60;;;;;;;3.44;74.61;100265.69;5001332;28;20049;-82
2023/12/06 09:51:25;;;;;;;5.22;2.85;;;;;;;3.50;74.40;100274.41;5031326;28;20049;-82
2023/12/06 09:53:52;;;;;;;5.00;2.85;;;;;;;3.51;74.53;100270.97;5010533;28;20033;-81
2023/12/06 09:56:19;;;;;;;6.35;2.95;;;;;;;3.50;74.92;100274.41;5019422;28;20049;-82
2023/12/06 09:58:46;;;;;;;4.50;2.85;;;;;;;3.53;73.38;100269.25;5017695;28;20049;-79
2023/12/06 10:01:13;;;;;;;8.35;2.92;;;;;;;3.55;74.25;100267.53;5000815;28;20054;-81
2023/12/06 10:03:42;;;;;;;4.63;2.78;;;;;;;3.55;74.16;100272.72;5021984;28;20107;-82
2023/12/06 10:06:09;;;;;;;4.57;2.80;;;;;;;3.56;73.32;100267.53;5012814;28;20049;-81
2023/12/06 10:08:36;;;;;;;5.00;2.92;;;;;;;3.61;73.14;100283.19;5018571;28;20068;-82
2023/12/06 10:11:08;;;;;;;6.35;3.05;;;;;;;3.60;73.35;100281.44;4997394;28;20042;-81
2023/12/06 10:13:36;;;;;;;6.32;3.15;;;;;;;3.62;74.41;100290.09;5009431;28;20052;-82
2023/12/06 10:16:15;;;;;;;6.82;3.15;;;;;;;3.59;73.60;100290.06;5029892;28;20049;-82
2023/12/06 10:18:48;;;;;;;5.80;2.95;;;;;;;3.62;74.09;100288.38;5005178;28;20057;-82
2023/12/06 10:21:24;;;;;;;5.28;3.08;;;;;;;3.62;73.04;100284.91;4990487;28;20046;-81
2023/12/06 10:23:55;;;;;;;4.28;2.42;;;;;;;3.64;73.29;100289.25;4995285;28;20472;-81
2023/12/06 10:26:25;;;;;;;3.15;2.45;;;;;;;3.63;72.68;100282.31;4990636;28;20117;-81
2023/12/06 10:28:53;;;;;;;5.40;2.85;;;;;;;3.66;72.76;100284.09;4980908;28;20065;-82
2023/12/06 10:31:21;;;;;;;4.88;2.95;;;;;;;3.69;72.94;100286.72;5000242;28;20038;-82
2023/12/06 10:33:55;;;;;;;6.07;3.13;;;;;;;3.75;73.16;100289.38;4996139;28;20539;-80
2023/12/06 10:36:27;;;;;;;5.32;2.72;;;;;;;3.79;74.16;100283.34;4998023;28;20054;-81
2023/12/06 10:38:55;;;;;;;6.45;3.28;;;;;;;3.77;73.00;100290.25;4985702;28;20069;-81
2023/12/06 10:41:26;;;;;;;4.70;2.92;;;;;;;3.81;72.77;100292.03;4993828;28;20072;-81
2023/12/06 10:43:55;;;;;;;6.95;3.30;;;;;;;3.88;72.86;100292.09;4987287;28;20069;-81
2023/12/06 10:46:24;;;;;;;5.25;2.75;;;;;;;3.91;72.49;100289.53;4996287;28;20045;-82
2023/12/06 10:48:55;;;;;;;5.22;2.63;;;;;;;3.92;72.54;100294.72;4987854;28;20054;-81
2023/12/06 10:51:24;;;;;;;7.93;3.42;;;;;;;3.92;73.04;100296.47;4994008;28;20046;-82
2023/12/06 10:53:52;;;;;;;20.17;8.23;;;;;;;3.93;73.58;100301.69;4990192;28;20042;-82
2023/12/06 10:56:19;;;;;;;10.75;3.80;;;;;;;3.95;73.16;100292.19;4996026;28;20042;-82
2023/12/06 10:58:47;;;;;;;6.55;3.47;;;;;;;3.98;73.97;100296.53;4997907;28;20038;-80
2023/12/06 11:01:15;;;;;;;8.55;4.28;;;;;;;4.01;73.31;100288.75;5002310;28;20074;-80
2023/12/06 11:03:42;;;;;;;4.72;2.92;;;;;;;4.03;72.87;100292.25;5000909;28;20046;-82
2023/12/06 11:06:31;;;;;;;4.75;2.22;;;;;;;4.03;72.05;100293.97;5008711;28;20046;-82
2023/12/06 11:09:15;;;;;;;4.47;2.42;;;;;;;4.04;72.29;100288.81;4996358;28;20107;-82
2023/12/06 11:11:50;;;;;;;4.22;2.38;;;;;;;4.11;72.34;100290.59;4997163;28;20046;-83
2023/12/06 11:14:26;;;;;;;5.13;2.70;;;;;;;4.16;72.89;100296.69;5025800;28;20041;-82
2023/12/06 11:17:23;;;;;;;4.60;2.50;;;;;;;4.12;72.40;100300.13;4996221;28;20046;-84
2023/12/06 11:19:51;;;;;;;4.88;2.55;;;;;;;4.06;72.23;100299.22;4989460;28;20037;-83
2023/12/06 11:22:18;;;;;;;3.90;2.10;;;;;;;4.07;70.85;100298.31;4992780;28;20065;-83
2023/12/06 11:24:45;;;;;;;4.90;2.15;;;;;;;4.06;71.44;100305.25;5008256;28;20038;-83
2023/12/06 11:27:11;;;;;;;5.80;2.45;;;;;;;4.11;71.66;100301.00;4988532;28;20076;-82
2023/12/06 11:29:39;;;;;;;3.88;2.47;;;;;;;4.12;72.15;100307.06;5003136;28;20042;-82
2023/12/06 11:32:11;;;;;;;6.68;2.92;;;;;;;4.14;72.27;100314.00;4992920;28;20358;-83
2023/12/06 11:34:40;;;;;;;2.70;1.95;;;;;;;4.14;71.50;100316.59;5001568;28;20117;-83
2023/12/06 11:37:17;;;;;;;4.32;2.67;;;;;;;4.12;72.07;100307.91;4990795;28;20050;-83
2023/12/06 11:40:17;;;;;;;4.88;2.65;;;;;;;4.08;72.27;100310.47;4992968;28;20054;-83
2023/12/06 11:42:58;;;;;;;4.13;2.10;;;;;;;4.04;72.24;100299.19;4991536;28;20037;-82